TAF Text Data
IDs:
Format:
Raw Decoded Include METAR

Data at: 1157 UTC 26 Feb 2021

KFMY 261120Z 2612/2712 VRB04KT P6SM SKC
  FM261400 11006KT P6SM SKC
  FM261800 16007KT P6SM SCT040
  FM262200 21006KT P6SM BKN040
  FM270100 VRB03KT P6SM FEW035